sensor_id;sensor_type;location;lat;lon;timestamp;pressure;altitude;pressure_sealevel;temperature;humidity
31595;BME280;18200;48.726;8.892;2022-09-09T00:00:49;96428.38;;;24.19;45.44
31595;BME280;18200;48.726;8.892;2022-09-09T00:04:58;96426.97;;;24.54;42.78
31595;BME280;18200;48.726;8.892;2022-09-09T00:09:13;96422.97;;;24.37;43.88
31595;BME280;18200;48.726;8.892;2022-09-09T00:13:58;96409.88;;;24.50;43.29
31595;BME280;18200;48.726;8.892;2022-09-09T00:17:42;96416.59;;;24.58;44.26
31595;BME280;18200;48.726;8.892;2022-09-09T00:21:45;96419.63;;;24.42;44.11
31595;BME280;18200;48.726;8.892;2022-09-09T00:26:02;96415.41;;;24.59;44.02
31595;BME280;18200;48.726;8.892;2022-09-09T00:30:23;96415.38;;;24.68;43.55
31595;BME280;18200;48.726;8.892;2022-09-09T00:34:24;96411.38;;;24.51;43.10
31595;BME280;18200;48.726;8.892;2022-09-09T00:38:33;96410.66;;;24.11;45.39
31595;BME280;18200;48.726;8.892;2022-09-09T00:42:41;96419.72;;;24.79;42.94
31595;BME280;18200;48.726;8.892;2022-09-09T00:50:50;96420.97;;;24.96;43.03
31595;BME280;18200;48.726;8.892;2022-09-09T00:55:15;96411.50;;;25.15;42.75
31595;BME280;18200;48.726;8.892;2022-09-09T00:59:24;96412.56;;;24.23;44.72
31595;BME280;18200;48.726;8.892;2022-09-09T01:08:02;96414.75;;;24.46;44.29
31595;BME280;18200;48.726;8.892;2022-09-09T01:16:06;96427.59;;;24.58;43.56
31595;BME280;18200;48.726;8.892;2022-09-09T01:20:12;96433.19;;;25.13;42.58
31595;BME280;18200;48.726;8.892;2022-09-09T01:29:08;96435.63;;;25.38;42.58
31595;BME280;18200;48.726;8.892;2022-09-09T01:33:16;96452.53;;;24.82;43.51
31595;BME280;18200;48.726;8.892;2022-09-09T01:37:17;96450.88;;;25.03;42.87
31595;BME280;18200;48.726;8.892;2022-09-09T01:41:17;96452.16;;;24.53;44.32
31595;BME280;18200;48.726;8.892;2022-09-09T01:45:44;96431.03;;;25.17;42.02
31595;BME280;18200;48.726;8.892;2022-09-09T01:49:46;96422.78;;;25.17;40.79
31595;BME280;18200;48.726;8.892;2022-09-09T01:53:54;96422.78;;;24.99;41.38
31595;BME280;18200;48.726;8.892;2022-09-09T02:02:09;96432.19;;;24.61;41.61
31595;BME280;18200;48.726;8.892;2022-09-09T02:10:31;96419.72;;;24.88;41.20
31595;BME280;18200;48.726;8.892;2022-09-09T02:14:52;96428.44;;;25.50;40.18
31595;BME280;18200;48.726;8.892;2022-09-09T02:23:05;96445.34;;;23.65;44.53
31595;BME280;18200;48.726;8.892;2022-09-09T02:27:09;96441.06;;;23.95;43.35
31595;BME280;18200;48.726;8.892;2022-09-09T02:31:10;96438.13;;;23.89;44.52
31595;BME280;18200;48.726;8.892;2022-09-09T02:35:16;96443.84;;;24.84;41.96
31595;BME280;18200;48.726;8.892;2022-09-09T02:39:18;96433.34;;;25.46;40.74
31595;BME280;18200;48.726;8.892;2022-09-09T02:43:19;96425.78;;;25.73;40.17
31595;BME280;18200;48.726;8.892;2022-09-09T02:51:24;96411.00;;;26.03;39.53
31595;BME280;18200;48.726;8.892;2022-09-09T02:55:39;96396.84;;;25.87;40.29
31595;BME280;18200;48.726;8.892;2022-09-09T02:59:44;96399.09;;;24.16;43.75
31595;BME280;18200;48.726;8.892;2022-09-09T03:03:44;96412.59;;;24.41;43.05
31595;BME280;18200;48.726;8.892;2022-09-09T03:07:49;96414.06;;;25.00;41.94
31595;BME280;18200;48.726;8.892;2022-09-09T03:11:52;96405.66;;;25.40;40.88
31595;BME280;18200;48.726;8.892;2022-09-09T03:15:53;96402.63;;;25.29;40.86
31595;BME280;18200;48.726;8.892;2022-09-09T03:19:55;96411.91;;;24.68;42.69
31595;BME280;18200;48.726;8.892;2022-09-09T03:23:56;96405.69;;;24.77;41.97
31595;BME280;18200;48.726;8.892;2022-09-09T03:27:57;96415.13;;;24.76;41.85
31595;BME280;18200;48.726;8.892;2022-09-09T03:31:58;96418.00;;;24.63;42.19
31595;BME280;18200;48.726;8.892;2022-09-09T03:35:58;96428.81;;;24.66;41.71
31595;BME280;18200;48.726;8.892;2022-09-09T03:39:59;96428.22;;;24.72;41.75
31595;BME280;18200;48.726;8.892;2022-09-09T03:44:00;96426.44;;;24.87;41.89
31595;BME280;18200;48.726;8.892;2022-09-09T03:48:04;96427.41;;;24.44;43.15
31595;BME280;18200;48.726;8.892;2022-09-09T03:52:05;96426.94;;;24.45;42.66
31595;BME280;18200;48.726;8.892;2022-09-09T03:56:06;96414.66;;;24.10;43.60
31595;BME280;18200;48.726;8.892;2022-09-09T04:00:07;96408.16;;;24.35;42.99
31595;BME280;18200;48.726;8.892;2022-09-09T04:04:16;96419.31;;;24.49;42.39
31595;BME280;18200;48.726;8.892;2022-09-09T04:08:17;96416.66;;;24.28;42.72
31595;BME280;18200;48.726;8.892;2022-09-09T04:12:19;96422.59;;;24.17;43.38
31595;BME280;18200;48.726;8.892;2022-09-09T04:16:20;96431.81;;;23.71;44.05
31595;BME280;18200;48.726;8.892;2022-09-09T04:20:20;96424.34;;;24.02;43.86
31595;BME280;18200;48.726;8.892;2022-09-09T04:24:22;96424.09;;;24.09;43.76
31595;BME280;18200;48.726;8.892;2022-09-09T04:28:24;96421.66;;;24.11;44.02
31595;BME280;18200;48.726;8.892;2022-09-09T04:32:25;96428.38;;;24.19;43.53
31595;BME280;18200;48.726;8.892;2022-09-09T04:36:28;96435.91;;;24.37;43.84
31595;BME280;18200;48.726;8.892;2022-09-09T04:40:33;96425.13;;;24.51;42.51
31595;BME280;18200;48.726;8.892;2022-09-09T04:44:33;96422.44;;;24.70;42.63
31595;BME280;18200;48.726;8.892;2022-09-09T04:48:33;96436.38;;;23.31;45.90
31595;BME280;18200;48.726;8.892;2022-09-09T04:52:35;96424.38;;;24.51;43.44
31595;BME280;18200;48.726;8.892;2022-09-09T04:56:36;96440.13;;;24.59;43.19
31595;BME280;18200;48.726;8.892;2022-09-09T05:00:36;96447.50;;;24.90;41.99
31595;BME280;18200;48.726;8.892;2022-09-09T05:04:39;96449.84;;;24.42;43.19
31595;BME280;18200;48.726;8.892;2022-09-09T05:08:41;96449.53;;;25.16;41.74
31595;BME280;18200;48.726;8.892;2022-09-09T05:12:42;96453.00;;;24.90;42.71
31595;BME280;18200;48.726;8.892;2022-09-09T05:16:46;96443.72;;;25.42;41.59
31595;BME280;18200;48.726;8.892;2022-09-09T05:20:48;96447.56;;;25.44;41.37
31595;BME280;18200;48.726;8.892;2022-09-09T05:24:49;96459.00;;;25.33;41.48
31595;BME280;18200;48.726;8.892;2022-09-09T05:28:51;96456.38;;;25.39;41.27
31595;BME280;18200;48.726;8.892;2022-09-09T05:32:51;96461.00;;;25.15;41.97
31595;BME280;18200;48.726;8.892;2022-09-09T05:36:52;96458.53;;;25.17;42.93
31595;BME280;18200;48.726;8.892;2022-09-09T05:40:55;96473.47;;;24.89;42.89
31595;BME280;18200;48.726;8.892;2022-09-09T05:44:57;96475.03;;;25.35;42.15
31595;BME280;18200;48.726;8.892;2022-09-09T05:48:58;96466.34;;;25.46;41.85
31595;BME280;18200;48.726;8.892;2022-09-09T05:53:03;96473.47;;;24.89;43.15
31595;BME280;18200;48.726;8.892;2022-09-09T05:57:04;96466.81;;;25.53;42.11
31595;BME280;18200;48.726;8.892;2022-09-09T06:01:05;96466.63;;;25.57;41.54
31595;BME280;18200;48.726;8.892;2022-09-09T06:05:06;96463.50;;;26.00;40.19
31595;BME280;18200;48.726;8.892;2022-09-09T06:09:09;96462.38;;;26.15;40.52
31595;BME280;18200;48.726;8.892;2022-09-09T06:13:11;96473.00;;;25.90;40.95
31595;BME280;18200;48.726;8.892;2022-09-09T06:17:12;96472.81;;;26.11;40.18
31595;BME280;18200;48.726;8.892;2022-09-09T06:21:15;96469.50;;;25.89;40.78
31595;BME280;18200;48.726;8.892;2022-09-09T06:25:15;96472.81;;;26.11;40.30
31595;BME280;18200;48.726;8.892;2022-09-09T06:29:16;96459.94;;;26.17;40.26
31595;BME280;18200;48.726;8.892;2022-09-09T06:33:16;96468.75;;;26.31;39.58
31595;BME280;18200;48.726;8.892;2022-09-09T06:37:18;96468.88;;;26.78;38.56
31595;BME280;18200;48.726;8.892;2022-09-09T06:41:23;96456.47;;;26.97;38.35
31595;BME280;18200;48.726;8.892;2022-09-09T06:45:24;96475.66;;;27.15;38.57
31595;BME280;18200;48.726;8.892;2022-09-09T06:49:29;96472.97;;;27.06;38.26
31595;BME280;18200;48.726;8.892;2022-09-09T06:53:29;96470.97;;;27.07;39.10
31595;BME280;18200;48.726;8.892;2022-09-09T06:57:30;96471.28;;;27.09;38.19
31595;BME280;18200;48.726;8.892;2022-09-09T07:01:32;96479.13;;;26.45;39.43
31595;BME280;18200;48.726;8.892;2022-09-09T07:05:35;96480.66;;;26.78;38.83
31595;BME280;18200;48.726;8.892;2022-09-09T07:09:35;96479.16;;;27.39;38.41
31595;BME280;18200;48.726;8.892;2022-09-09T07:13:36;96471.97;;;27.56;37.37
31595;BME280;18200;48.726;8.892;2022-09-09T07:17:37;96481.78;;;27.57;37.99
31595;BME280;18200;48.726;8.892;2022-09-09T07:21:38;96478.34;;;27.24;39.11
31595;BME280;18200;48.726;8.892;2022-09-09T07:25:44;96472.03;;;28.00;37.54
31595;BME280;18200;48.726;8.892;2022-09-09T07:29:46;96480.47;;;27.29;38.80
31595;BME280;18200;48.726;8.892;2022-09-09T07:33:47;96480.19;;;27.95;37.87
31595;BME280;18200;48.726;8.892;2022-09-09T07:37:48;96493.13;;;27.89;38.38
31595;BME280;18200;48.726;8.892;2022-09-09T07:41:49;96473.72;;;28.12;37.80
31595;BME280;18200;48.726;8.892;2022-09-09T07:45:59;96471.75;;;27.45;38.60
31595;BME280;18200;48.726;8.892;2022-09-09T07:50:01;96481.09;;;27.24;39.58
31595;BME280;18200;48.726;8.892;2022-09-09T07:54:06;96481.38;;;27.50;39.09
31595;BME280;18200;48.726;8.892;2022-09-09T07:58:07;96489.78;;;27.32;39.18
31595;BME280;18200;48.726;8.892;2022-09-09T08:02:08;96488.41;;;27.13;39.83
31595;BME280;18200;48.726;8.892;2022-09-09T08:06:10;96509.81;;;26.20;41.35
31595;BME280;18200;48.726;8.892;2022-09-09T08:10:11;96511.47;;;26.26;41.58
31595;BME280;18200;48.726;8.892;2022-09-09T08:14:14;96499.06;;;26.96;40.09
31595;BME280;18200;48.726;8.892;2022-09-09T08:18:15;96499.69;;;27.62;39.03
31595;BME280;18200;48.726;8.892;2022-09-09T08:22:16;96498.69;;;28.18;37.23
31595;BME280;18200;48.726;8.892;2022-09-09T08:26:18;96501.03;;;26.81;39.29
31595;BME280;18200;48.726;8.892;2022-09-09T08:30:21;96511.28;;;28.04;37.58
31595;BME280;18200;48.726;8.892;2022-09-09T08:34:22;96508.44;;;27.75;37.24
31595;BME280;18200;48.726;8.892;2022-09-09T08:38:24;96503.44;;;28.96;36.50
31595;BME280;18200;48.726;8.892;2022-09-09T08:42:30;96495.63;;;29.55;34.92
31595;BME280;18200;48.726;8.892;2022-09-09T08:50:35;96520.72;;;27.98;37.39
31595;BME280;18200;48.726;8.892;2022-09-09T08:54:42;96528.53;;;27.76;39.27
31595;BME280;18200;48.726;8.892;2022-09-09T08:58:47;96522.81;;;27.64;38.16
31595;BME280;18200;48.726;8.892;2022-09-09T09:11:07;96525.13;;;27.66;38.57
31595;BME280;18200;48.726;8.892;2022-09-09T09:15:11;96517.03;;;28.99;35.27
31595;BME280;18200;48.726;8.892;2022-09-09T09:19:16;96512.63;;;29.48;34.18
31595;BME280;18200;48.726;8.892;2022-09-09T09:23:25;96509.28;;;30.10;32.79
31595;BME280;18200;48.726;8.892;2022-09-09T09:27:38;96501.56;;;29.48;33.19
31595;BME280;18200;48.726;8.892;2022-09-09T09:31:47;96494.03;;;29.94;33.50
31595;BME280;18200;48.726;8.892;2022-09-09T09:35:49;96493.09;;;30.59;32.56
31595;BME280;18200;48.726;8.892;2022-09-09T09:39:50;96494.59;;;30.29;31.85
31595;BME280;18200;48.726;8.892;2022-09-09T09:43:53;96477.50;;;30.67;31.44
31595;BME280;18200;48.726;8.892;2022-09-09T09:47:58;96486.69;;;30.85;31.25
31595;BME280;18200;48.726;8.892;2022-09-09T09:52:02;96478.59;;;31.23;30.97
31595;BME280;18200;48.726;8.892;2022-09-09T10:00:12;96468.25;;;31.24;31.20
31595;BME280;18200;48.726;8.892;2022-09-09T10:04:19;96454.06;;;32.25;29.31
31595;BME280;18200;48.726;8.892;2022-09-09T10:08:22;96464.44;;;32.02;29.73
31595;BME280;18200;48.726;8.892;2022-09-09T10:12:36;96464.94;;;32.29;29.12
31595;BME280;18200;48.726;8.892;2022-09-09T10:25:23;96458.44;;;33.22;28.33
31595;BME280;18200;48.726;8.892;2022-09-09T10:38:11;96472.41;;;30.29;31.88
31595;BME280;18200;48.726;8.892;2022-09-09T10:42:14;96487.31;;;29.75;32.78
31595;BME280;18200;48.726;8.892;2022-09-09T10:50:24;96513.44;;;27.47;33.17
31595;BME280;18200;48.726;8.892;2022-09-09T10:54:34;96514.03;;;29.58;32.70
31595;BME280;18200;48.726;8.892;2022-09-09T10:58:51;96510.03;;;29.39;31.98
31595;BME280;18200;48.726;8.892;2022-09-09T11:02:58;96542.81;;;28.27;32.59
31595;BME280;18200;48.726;8.892;2022-09-09T11:07:01;96554.16;;;27.05;36.31
31595;BME280;18200;48.726;8.892;2022-09-09T11:15:29;96580.63;;;24.80;42.63
31595;BME280;18200;48.726;8.892;2022-09-09T11:19:35;96566.31;;;25.43;43.16
31595;BME280;18200;48.726;8.892;2022-09-09T11:23:39;96558.72;;;25.07;44.27
31595;BME280;18200;48.726;8.892;2022-09-09T11:27:54;96545.94;;;25.40;44.51
31595;BME280;18200;48.726;8.892;2022-09-09T11:36:29;96527.03;;;25.42;43.07
31595;BME280;18200;48.726;8.892;2022-09-09T11:40:34;96511.09;;;27.08;40.48
31595;BME280;18200;48.726;8.892;2022-09-09T11:44:35;96503.84;;;27.19;40.21
31595;BME280;18200;48.726;8.892;2022-09-09T11:48:36;96506.84;;;27.07;42.52
31595;BME280;18200;48.726;8.892;2022-09-09T12:00:45;96498.94;;;26.58;42.05
31595;BME280;18200;48.726;8.892;2022-09-09T12:04:50;96488.75;;;27.82;39.80
31595;BME280;18200;48.726;8.892;2022-09-09T12:08:56;96484.19;;;26.70;39.87
31595;BME280;18200;48.726;8.892;2022-09-09T12:17:29;96498.59;;;29.31;34.65
31595;BME280;18200;48.726;8.892;2022-09-09T12:22:14;96486.63;;;29.60;34.38
31595;BME280;18200;48.726;8.892;2022-09-09T12:30:14;96474.91;;;31.43;31.59
31595;BME280;18200;48.726;8.892;2022-09-09T12:34:16;96475.09;;;30.18;32.63
31595;BME280;18200;48.726;8.892;2022-09-09T12:38:30;96468.78;;;29.41;34.30
31595;BME280;18200;48.726;8.892;2022-09-09T12:42:32;96467.56;;;29.22;34.85
31595;BME280;18200;48.726;8.892;2022-09-09T12:46:42;96479.13;;;29.66;33.21
31595;BME280;18200;48.726;8.892;2022-09-09T12:50:50;96469.25;;;30.11;32.80
31595;BME280;18200;48.726;8.892;2022-09-09T12:54:51;96455.75;;;31.67;30.02
31595;BME280;18200;48.726;8.892;2022-09-09T12:58:54;96438.31;;;30.86;31.10
31595;BME280;18200;48.726;8.892;2022-09-09T13:02:56;96448.47;;;31.92;30.87
31595;BME280;18200;48.726;8.892;2022-09-09T13:07:07;96443.97;;;32.11;29.77
31595;BME280;18200;48.726;8.892;2022-09-09T13:11:13;96436.88;;;31.07;29.78
31595;BME280;18200;48.726;8.892;2022-09-09T13:15:19;96435.75;;;29.83;31.74
31595;BME280;18200;48.726;8.892;2022-09-09T13:19:20;96433.97;;;29.80;32.35
31595;BME280;18200;48.726;8.892;2022-09-09T13:23:21;96432.75;;;29.61;30.69
31595;BME280;18200;48.726;8.892;2022-09-09T13:27:24;96444.69;;;28.52;31.52
31595;BME280;18200;48.726;8.892;2022-09-09T13:31:30;96431.31;;;29.71;30.33
31595;BME280;18200;48.726;8.892;2022-09-09T13:35:32;96417.75;;;30.67;28.14
31595;BME280;18200;48.726;8.892;2022-09-09T13:39:35;96437.34;;;31.00;27.40
31595;BME280;18200;48.726;8.892;2022-09-09T13:47:37;96426.84;;;30.30;28.66
31595;BME280;18200;48.726;8.892;2022-09-09T13:51:38;96426.75;;;31.04;27.39
31595;BME280;18200;48.726;8.892;2022-09-09T13:55:38;96441.13;;;30.23;27.74
31595;BME280;18200;48.726;8.892;2022-09-09T13:59:39;96422.75;;;30.62;28.19
31595;BME280;18200;48.726;8.892;2022-09-09T14:03:39;96425.19;;;29.15;28.95
31595;BME280;18200;48.726;8.892;2022-09-09T14:07:40;96412.34;;;30.94;26.84
31595;BME280;18200;48.726;8.892;2022-09-09T14:11:42;96425.41;;;30.40;26.91
31595;BME280;18200;48.726;8.892;2022-09-09T14:15:42;96416.31;;;31.52;25.82
31595;BME280;18200;48.726;8.892;2022-09-09T14:19:43;96421.69;;;32.39;24.92
31595;BME280;18200;48.726;8.892;2022-09-09T14:23:45;96411.66;;;30.62;26.81
31595;BME280;18200;48.726;8.892;2022-09-09T14:27:45;96420.53;;;31.31;26.10
31595;BME280;18200;48.726;8.892;2022-09-09T14:31:46;96419.44;;;30.58;27.35
31595;BME280;18200;48.726;8.892;2022-09-09T14:35:46;96409.53;;;31.53;26.10
31595;BME280;18200;48.726;8.892;2022-09-09T14:39:46;96420.78;;;30.69;27.01
31595;BME280;18200;48.726;8.892;2022-09-09T14:43:47;96419.34;;;31.43;26.17
31595;BME280;18200;48.726;8.892;2022-09-09T14:47:49;96427.31;;;31.19;26.36
31595;BME280;18200;48.726;8.892;2022-09-09T14:51:49;96423.16;;;30.13;28.28
31595;BME280;18200;48.726;8.892;2022-09-09T14:55:49;96421.84;;;30.34;27.84
31595;BME280;18200;48.726;8.892;2022-09-09T14:59:49;96428.16;;;30.40;28.48
31595;BME280;18200;48.726;8.892;2022-09-09T15:03:57;96429.78;;;31.81;25.79
31595;BME280;18200;48.726;8.892;2022-09-09T15:07:58;96420.09;;;30.85;27.21
31595;BME280;18200;48.726;8.892;2022-09-09T15:11:58;96419.06;;;29.77;28.14
31595;BME280;18200;48.726;8.892;2022-09-09T15:16:15;96416.56;;;30.36;27.70
31595;BME280;18200;48.726;8.892;2022-09-09T15:20:15;96406.66;;;31.20;27.05
31595;BME280;18200;48.726;8.892;2022-09-09T15:24:16;96408.41;;;29.96;28.81
31595;BME280;18200;48.726;8.892;2022-09-09T15:28:17;96409.25;;;30.08;29.00
31595;BME280;18200;48.726;8.892;2022-09-09T15:32:17;96411.13;;;30.58;27.67
31595;BME280;18200;48.726;8.892;2022-09-09T15:36:22;96428.16;;;30.83;26.87
31595;BME280;18200;48.726;8.892;2022-09-09T15:40:22;96434.50;;;30.46;28.31
31595;BME280;18200;48.726;8.892;2022-09-09T15:44:22;96443.53;;;29.79;28.88
31595;BME280;18200;48.726;8.892;2022-09-09T15:48:31;96451.72;;;29.48;29.69
31595;BME280;18200;48.726;8.892;2022-09-09T15:52:34;96457.25;;;29.68;28.74
31595;BME280;18200;48.726;8.892;2022-09-09T15:56:35;96456.19;;;28.99;30.56
31595;BME280;18200;48.726;8.892;2022-09-09T16:00:35;96476.38;;;29.05;30.29
31595;BME280;18200;48.726;8.892;2022-09-09T16:04:35;96485.31;;;28.46;31.47
31595;BME280;18200;48.726;8.892;2022-09-09T16:08:36;96496.06;;;28.58;31.47
31595;BME280;18200;48.726;8.892;2022-09-09T16:12:37;96495.84;;;28.12;32.53
31595;BME280;18200;48.726;8.892;2022-09-09T16:16:37;96509.91;;;26.76;36.21
31595;BME280;18200;48.726;8.892;2022-09-09T16:20:38;96513.16;;;27.22;34.46
31595;BME280;18200;48.726;8.892;2022-09-09T16:24:41;96512.59;;;27.32;33.80
31595;BME280;18200;48.726;8.892;2022-09-09T16:28:41;96516.03;;;26.80;36.17
31595;BME280;18200;48.726;8.892;2022-09-09T16:32:41;96516.91;;;25.84;38.39
31595;BME280;18200;48.726;8.892;2022-09-09T16:36:42;96511.19;;;26.66;37.68
31595;BME280;18200;48.726;8.892;2022-09-09T16:40:43;96493.91;;;26.89;37.11
31595;BME280;18200;48.726;8.892;2022-09-09T16:44:43;96498.88;;;27.85;35.08
31595;BME280;18200;48.726;8.892;2022-09-09T16:48:44;96498.16;;;27.76;35.90
31595;BME280;18200;48.726;8.892;2022-09-09T16:52:45;96504.56;;;28.40;34.18
31595;BME280;18200;48.726;8.892;2022-09-09T16:56:47;96505.88;;;27.33;35.56
31595;BME280;18200;48.726;8.892;2022-09-09T17:00:47;96497.53;;;27.81;35.93
31595;BME280;18200;48.726;8.892;2022-09-09T17:04:48;96490.53;;;27.32;36.01
31595;BME280;18200;48.726;8.892;2022-09-09T17:08:57;96482.84;;;28.33;34.74
31595;BME280;18200;48.726;8.892;2022-09-09T17:12:58;96487.41;;;27.78;35.89
31595;BME280;18200;48.726;8.892;2022-09-09T17:16:58;96496.84;;;27.86;36.10
31595;BME280;18200;48.726;8.892;2022-09-09T17:21:02;96509.34;;;28.39;35.19
31595;BME280;18200;48.726;8.892;2022-09-09T17:25:03;96512.75;;;27.91;36.81
31595;BME280;18200;48.726;8.892;2022-09-09T17:29:03;96511.44;;;28.59;35.46
31595;BME280;18200;48.726;8.892;2022-09-09T17:33:04;96515.53;;;28.20;36.61
31595;BME280;18200;48.726;8.892;2022-09-09T17:37:04;96513.75;;;28.02;36.25
31595;BME280;18200;48.726;8.892;2022-09-09T17:41:07;96516.00;;;27.75;36.40
31595;BME280;18200;48.726;8.892;2022-09-09T17:45:07;96510.31;;;28.07;36.14
31595;BME280;18200;48.726;8.892;2022-09-09T17:49:09;96513.66;;;28.26;35.90
31595;BME280;18200;48.726;8.892;2022-09-09T17:53:10;96520.94;;;27.71;37.62
31595;BME280;18200;48.726;8.892;2022-09-09T17:57:10;96519.78;;;27.77;36.30
31595;BME280;18200;48.726;8.892;2022-09-09T18:01:12;96522.97;;;27.46;36.51
31595;BME280;18200;48.726;8.892;2022-09-09T18:05:13;96530.97;;;28.41;34.94
31595;BME280;18200;48.726;8.892;2022-09-09T18:09:16;96513.56;;;28.06;36.22
31595;BME280;18200;48.726;8.892;2022-09-09T18:13:17;96519.41;;;27.70;37.11
31595;BME280;18200;48.726;8.892;2022-09-09T18:17:17;96524.94;;;27.84;36.37
31595;BME280;18200;48.726;8.892;2022-09-09T18:21:18;96532.25;;;28.11;35.15
31595;BME280;18200;48.726;8.892;2022-09-09T18:25:18;96524.88;;;28.08;36.17
31595;BME280;18200;48.726;8.892;2022-09-09T18:29:19;96533.91;;;28.52;34.54
31595;BME280;18200;48.726;8.892;2022-09-09T18:33:20;96545.19;;;28.19;35.52
31595;BME280;18200;48.726;8.892;2022-09-09T18:37:20;96549.53;;;27.97;35.69
31595;BME280;18200;48.726;8.892;2022-09-09T18:45:21;96562.53;;;27.82;36.04
31595;BME280;18200;48.726;8.892;2022-09-09T18:49:22;96568.25;;;28.31;35.20
31595;BME280;18200;48.726;8.892;2022-09-09T18:53:23;96569.38;;;28.10;35.26
31595;BME280;18200;48.726;8.892;2022-09-09T18:57:23;96567.13;;;27.46;36.64
31595;BME280;18200;48.726;8.892;2022-09-09T19:01:24;96572.78;;;28.05;36.15
31595;BME280;18200;48.726;8.892;2022-09-09T19:05:24;96559.22;;;27.30;37.13
31595;BME280;18200;48.726;8.892;2022-09-09T19:09:29;96554.66;;;27.75;37.32
31595;BME280;18200;48.726;8.892;2022-09-09T19:13:32;96553.84;;;27.98;36.83
31595;BME280;18200;48.726;8.892;2022-09-09T19:17:32;96556.41;;;28.01;36.17
31595;BME280;18200;48.726;8.892;2022-09-09T19:21:35;96569.81;;;27.94;36.86
31595;BME280;18200;48.726;8.892;2022-09-09T19:25:37;96565.75;;;28.04;36.64
31595;BME280;18200;48.726;8.892;2022-09-09T19:29:37;96564.56;;;27.81;37.15
31595;BME280;18200;48.726;8.892;2022-09-09T19:33:42;96570.75;;;26.72;39.29
31595;BME280;18200;48.726;8.892;2022-09-09T19:37:44;96564.03;;;27.53;37.65
31595;BME280;18200;48.726;8.892;2022-09-09T19:41:44;96558.50;;;27.53;37.46
31595;BME280;18200;48.726;8.892;2022-09-09T19:45:57;96560.53;;;27.67;37.71
31595;BME280;18200;48.726;8.892;2022-09-09T19:49:58;96555.00;;;27.67;36.97
31595;BME280;18200;48.726;8.892;2022-09-09T19:54:00;96565.47;;;27.63;37.06
31595;BME280;18200;48.726;8.892;2022-09-09T19:58:01;96579.53;;;27.18;38.03
31595;BME280;18200;48.726;8.892;2022-09-09T20:02:03;96580.56;;;26.97;38.23
31595;BME280;18200;48.726;8.892;2022-09-09T20:06:10;96588.97;;;27.03;37.89
31595;BME280;18200;48.726;8.892;2022-09-09T20:10:11;96580.72;;;27.26;37.15
31595;BME280;18200;48.726;8.892;2022-09-09T20:14:11;96590.53;;;27.27;37.37
31595;BME280;18200;48.726;8.892;2022-09-09T20:18:12;96594.59;;;27.17;37.57
31595;BME280;18200;48.726;8.892;2022-09-09T20:22:13;96597.97;;;27.12;37.34
31595;BME280;18200;48.726;8.892;2022-09-09T20:26:14;96603.28;;;27.48;37.22
31595;BME280;18200;48.726;8.892;2022-09-09T20:30:20;96602.75;;;27.35;37.15
31595;BME280;18200;48.726;8.892;2022-09-09T20:34:20;96598.47;;;27.02;38.06
31595;BME280;18200;48.726;8.892;2022-09-09T20:38:21;96608.28;;;27.35;37.35
31595;BME280;18200;48.726;8.892;2022-09-09T20:42:22;96602.13;;;27.08;37.22
31595;BME280;18200;48.726;8.892;2022-09-09T20:46:23;96614.69;;;26.76;37.84
31595;BME280;18200;48.726;8.892;2022-09-09T20:50:23;96606.88;;;26.74;37.99
31595;BME280;18200;48.726;8.892;2022-09-09T20:54:25;96612.22;;;26.78;37.85
31595;BME280;18200;48.726;8.892;2022-09-09T20:58:26;96612.72;;;26.49;38.75
31595;BME280;18200;48.726;8.892;2022-09-09T21:02:27;96612.41;;;26.74;37.90
31595;BME280;18200;48.726;8.892;2022-09-09T21:06:27;96618.78;;;26.71;38.07
31595;BME280;18200;48.726;8.892;2022-09-09T21:10:27;96610.44;;;26.48;38.63
31595;BME280;18200;48.726;8.892;2022-09-09T21:14:27;96602.91;;;26.57;38.22
31595;BME280;18200;48.726;8.892;2022-09-09T21:18:28;96612.72;;;26.49;38.07
31595;BME280;18200;48.726;8.892;2022-09-09T21:22:28;96614.72;;;26.49;38.58
31595;BME280;18200;48.726;8.892;2022-09-09T21:26:29;96606.50;;;26.31;39.11
31595;BME280;18200;48.726;8.892;2022-09-09T21:30:30;96607.22;;;26.49;39.01
31595;BME280;18200;48.726;8.892;2022-09-09T21:34:32;96605.44;;;25.92;40.13
31595;BME280;18200;48.726;8.892;2022-09-09T21:38:33;96621.41;;;25.21;41.46
31595;BME280;18200;48.726;8.892;2022-09-09T21:42:33;96612.50;;;25.08;41.95
31595;BME280;18200;48.726;8.892;2022-09-09T21:46:34;96607.91;;;25.72;40.10
31595;BME280;18200;48.726;8.892;2022-09-09T21:50:37;96599.94;;;25.65;40.94
31595;BME280;18200;48.726;8.892;2022-09-09T21:54:37;96591.34;;;25.54;40.95
31595;BME280;18200;48.726;8.892;2022-09-09T21:58:42;96602.47;;;25.41;41.16
31595;BME280;18200;48.726;8.892;2022-09-09T22:02:43;96597.34;;;25.70;39.64
31595;BME280;18200;48.726;8.892;2022-09-09T22:06:43;96602.81;;;25.43;40.47
31595;BME280;18200;48.726;8.892;2022-09-09T22:10:44;96596.72;;;25.75;39.67
31595;BME280;18200;48.726;8.892;2022-09-09T22:14:45;96596.44;;;25.55;39.83
31595;BME280;18200;48.726;8.892;2022-09-09T22:18:49;96604.97;;;25.75;39.42
31595;BME280;18200;48.726;8.892;2022-09-09T22:22:49;96604.38;;;25.89;39.25
31595;BME280;18200;48.726;8.892;2022-09-09T22:26:50;96609.41;;;25.82;39.33
31595;BME280;18200;48.726;8.892;2022-09-09T22:30:55;96628.47;;;25.40;40.85
31595;BME280;18200;48.726;8.892;2022-09-09T22:34:55;96632.97;;;25.65;40.19
31595;BME280;18200;48.726;8.892;2022-09-09T22:38:57;96658.47;;;25.56;40.56
31595;BME280;18200;48.726;8.892;2022-09-09T22:42:57;96668.47;;;25.23;42.55
31595;BME280;18200;48.726;8.892;2022-09-09T22:46:58;96671.22;;;24.92;43.47
31595;BME280;18200;48.726;8.892;2022-09-09T22:51:02;96671.09;;;24.96;43.70
31595;BME280;18200;48.726;8.892;2022-09-09T22:55:03;96679.22;;;24.25;45.74
31595;BME280;18200;48.726;8.892;2022-09-09T22:59:03;96648.31;;;25.35;43.91
31595;BME280;18200;48.726;8.892;2022-09-09T23:03:03;96629.47;;;25.91;42.91
31595;BME280;18200;48.726;8.892;2022-09-09T23:07:04;96617.84;;;25.87;43.08
31595;BME280;18200;48.726;8.892;2022-09-09T23:11:08;96613.25;;;26.21;43.29